Time;durP1;ratioP1;P1;durP2;ratioP2;P2;SDS_P1;SDS_P2;PMS_P1;PMS_P2;Temp;Humidity;BMP_temperature;BMP_pressure;BME280_temperature;BME280_humidity;BME280_pressure;Samples;Min_cycle;Max_cycle;Signal;HPM_P1;HPM_P2
2024/04/14 00:01:39;;;;;;;6.13;5.30;;;;;;;;;;5329293;26;20070;-78
2024/04/14 00:04:06;;;;;;;9.27;5.63;;;;;;;;;;5353802;26;20079;-78
2024/04/14 00:06:34;;;;;;;7.72;6.00;;;;;;;;;;5324711;26;20013;-78
2024/04/14 00:09:01;;;;;;;8.35;5.88;;;;;;;;;;5337165;26;20453;-77
2024/04/14 00:11:28;;;;;;;11.38;5.85;;;;;;;;;;5312437;26;20009;-76
2024/04/14 00:13:55;;;;;;;8.10;6.32;;;;;;;;;;5316669;26;20005;-77
2024/04/14 00:16:22;;;;;;;12.55;6.57;;;;;;;;;;5318077;26;20004;-77
2024/04/14 00:18:49;;;;;;;9.75;6.70;;;;;;;;;;5320737;26;20015;-77
2024/04/14 00:21:21;;;;;;;7.40;5.78;;;;;;;;;;5321745;26;20016;-78
2024/04/14 00:23:49;;;;;;;8.07;5.80;;;;;;;;;;5314602;26;20001;-76
2024/04/14 00:26:15;;;;;;;8.95;5.65;;;;;;;;;;5315072;26;20060;-76
2024/04/14 00:28:44;;;;;;;7.03;5.97;;;;;;;;;;5329139;26;20022;-76
2024/04/14 00:31:10;;;;;;;6.75;5.95;;;;;;;;;;5313910;26;20028;-76
2024/04/14 00:33:37;;;;;;;8.32;6.70;;;;;;;;;;5314831;26;20009;-76
2024/04/14 00:36:04;;;;;;;8.23;6.15;;;;;;;;;;5314728;26;20016;-76
2024/04/14 00:38:31;;;;;;;9.38;6.32;;;;;;;;;;5328979;26;20104;-76
2024/04/14 00:40:58;;;;;;;9.13;6.80;;;;;;;;;;5314712;26;20004;-75
2024/04/14 00:43:24;;;;;;;10.02;6.63;;;;;;;;;;5313867;26;20020;-76
2024/04/14 00:45:52;;;;;;;9.52;6.45;;;;;;;;;;5314147;26;20019;-76
2024/04/14 00:48:19;;;;;;;8.95;5.97;;;;;;;;;;5314188;26;20009;-76
2024/04/14 00:50:46;;;;;;;7.97;5.93;;;;;;;;;;5314346;26;20005;-76
2024/04/14 00:53:12;;;;;;;9.05;5.97;;;;;;;;;;5312377;26;20024;-77
2024/04/14 00:55:39;;;;;;;8.85;5.80;;;;;;;;;;5333587;26;20536;-77
2024/04/14 00:58:06;;;;;;;7.50;5.80;;;;;;;;;;5328887;26;20060;-77
2024/04/14 01:00:33;;;;;;;6.72;5.40;;;;;;;;;;5314828;26;20005;-77
2024/04/14 01:03:00;;;;;;;6.70;5.38;;;;;;;;;;5315595;26;20386;-77
2024/04/14 01:05:27;;;;;;;7.22;5.50;;;;;;;;;;5315802;26;20005;-77
2024/04/14 01:07:53;;;;;;;8.45;5.88;;;;;;;;;;5308743;26;20005;-77
2024/04/14 01:10:20;;;;;;;8.43;5.78;;;;;;;;;;5316188;26;20017;-77
2024/04/14 01:12:47;;;;;;;9.35;5.05;;;;;;;;;;5331262;26;20009;-77
2024/04/14 01:15:15;;;;;;;7.80;5.28;;;;;;;;;;5346254;26;20483;-77
2024/04/14 01:17:42;;;;;;;5.82;5.05;;;;;;;;;;5314101;26;20081;-77
2024/04/14 01:20:10;;;;;;;5.75;4.80;;;;;;;;;;5318565;26;20347;-77
2024/04/14 01:22:37;;;;;;;5.65;4.53;;;;;;;;;;5332213;26;20005;-76
2024/04/14 01:25:04;;;;;;;7.05;5.20;;;;;;;;;;5309331;26;19997;-77
2024/04/14 01:27:31;;;;;;;5.88;5.22;;;;;;;;;;5314053;26;20459;-77
2024/04/14 01:29:57;;;;;;;6.18;4.75;;;;;;;;;;5317551;26;20021;-78
2024/04/14 01:32:24;;;;;;;5.28;4.57;;;;;;;;;;5322599;26;20009;-78
2024/04/14 01:34:51;;;;;;;7.72;4.32;;;;;;;;;;5322743;26;20059;-78
2024/04/14 01:37:17;;;;;;;11.13;5.03;;;;;;;;;;5341097;26;20020;-78
2024/04/14 01:39:44;;;;;;;7.18;4.90;;;;;;;;;;5332057;26;20423;-79
2024/04/14 01:42:11;;;;;;;7.85;4.55;;;;;;;;;;5335555;26;20023;-79
2024/04/14 01:44:37;;;;;;;4.70;4.00;;;;;;;;;;5322050;26;20005;-79
2024/04/14 01:47:04;;;;;;;12.05;4.93;;;;;;;;;;5331847;26;20009;-78
2024/04/14 01:49:31;;;;;;;5.35;4.40;;;;;;;;;;5330421;26;19997;-79
2024/04/14 01:51:58;;;;;;;5.88;4.20;;;;;;;;;;5326027;26;20085;-77
2024/04/14 01:54:25;;;;;;;8.63;4.50;;;;;;;;;;5321082;26;20005;-77
2024/04/14 01:56:52;;;;;;;5.43;4.30;;;;;;;;;;5327279;26;20008;-77
2024/04/14 01:59:18;;;;;;;6.45;4.50;;;;;;;;;;5313368;26;20013;-77
2024/04/14 02:01:45;;;;;;;4.80;4.30;;;;;;;;;;5324787;26;20009;-77
2024/04/14 02:04:12;;;;;;;6.88;4.53;;;;;;;;;;5285357;26;20017;-77
2024/04/14 02:06:39;;;;;;;4.72;4.32;;;;;;;;;;5284950;26;20008;-75
2024/04/14 02:09:06;;;;;;;4.70;3.90;;;;;;;;;;5313719;26;20033;-76
2024/04/14 02:11:33;;;;;;;6.65;3.85;;;;;;;;;;5293450;26;20027;-76
2024/04/14 02:14:00;;;;;;;7.65;4.72;;;;;;;;;;5319259;26;20001;-75
2024/04/14 02:16:26;;;;;;;6.95;4.13;;;;;;;;;;5313584;26;20366;-75
2024/04/14 02:18:53;;;;;;;5.97;4.07;;;;;;;;;;5326195;26;20081;-75
2024/04/14 02:21:20;;;;;;;5.97;4.20;;;;;;;;;;5319644;26;20331;-75
2024/04/14 02:23:47;;;;;;;9.85;3.95;;;;;;;;;;5322504;26;20008;-74
2024/04/14 02:26:13;;;;;;;4.68;3.95;;;;;;;;;;5285027;26;20020;-75
2024/04/14 02:28:40;;;;;;;6.55;4.03;;;;;;;;;;5357904;26;20459;-75
2024/04/14 02:31:07;;;;;;;5.25;3.50;;;;;;;;;;5327866;26;20047;-75
2024/04/14 02:33:34;;;;;;;4.60;3.85;;;;;;;;;;5343562;26;20013;-75
2024/04/14 02:36:01;;;;;;;3.67;3.38;;;;;;;;;;5313239;26;20474;-75
2024/04/14 02:38:28;;;;;;;5.57;3.70;;;;;;;;;;5284432;26;20001;-75
2024/04/14 02:40:55;;;;;;;4.45;3.70;;;;;;;;;;5327555;26;20009;-75
2024/04/14 02:43:22;;;;;;;4.80;3.95;;;;;;;;;;5312949;26;20009;-75
2024/04/14 02:45:48;;;;;;;3.45;3.15;;;;;;;;;;5353232;26;20012;-75
2024/04/14 02:48:15;;;;;;;5.07;3.60;;;;;;;;;;5314848;26;20019;-75
2024/04/14 02:50:42;;;;;;;4.35;3.75;;;;;;;;;;5323356;26;20009;-75
2024/04/14 02:53:10;;;;;;;3.83;3.17;;;;;;;;;;5316526;26;20019;-75
2024/04/14 02:55:37;;;;;;;6.07;3.08;;;;;;;;;;5298969;26;20094;-77
2024/04/14 02:58:04;;;;;;;5.45;3.42;;;;;;;;;;5284442;26;20009;-77
2024/04/14 03:00:31;;;;;;;4.57;3.17;;;;;;;;;;5284330;26;20019;-77
2024/04/14 03:02:58;;;;;;;3.38;3.08;;;;;;;;;;5284600;26;20005;-77
2024/04/14 03:05:25;;;;;;;4.85;3.78;;;;;;;;;;5289914;26;20053;-77
2024/04/14 03:07:52;;;;;;;6.45;3.47;;;;;;;;;;5285947;26;20015;-77
2024/04/14 03:10:18;;;;;;;5.13;3.60;;;;;;;;;;5292092;26;20009;-77
2024/04/14 03:12:45;;;;;;;5.03;3.50;;;;;;;;;;5325156;26;20401;-77
2024/04/14 03:15:12;;;;;;;5.65;3.22;;;;;;;;;;5287486;26;20008;-77
2024/04/14 03:17:39;;;;;;;4.60;3.25;;;;;;;;;;5345774;26;20495;-77
2024/04/14 03:20:06;;;;;;;3.70;3.40;;;;;;;;;;5315507;26;20001;-76
2024/04/14 03:22:33;;;;;;;3.38;3.10;;;;;;;;;;5301815;26;20001;-77
2024/04/14 03:24:59;;;;;;;4.57;3.50;;;;;;;;;;5281486;26;20006;-77
2024/04/14 03:27:26;;;;;;;4.82;2.88;;;;;;;;;;5287714;26;20013;-77
2024/04/14 03:29:53;;;;;;;4.00;3.30;;;;;;;;;;5359359;26;20023;-77
2024/04/14 03:32:20;;;;;;;3.30;3.00;;;;;;;;;;5317866;26;20019;-77
2024/04/14 03:34:47;;;;;;;5.60;3.15;;;;;;;;;;5332748;26;20875;-77
2024/04/14 03:37:13;;;;;;;6.15;3.47;;;;;;;;;;5350208;26;20053;-77
2024/04/14 03:39:40;;;;;;;3.67;3.03;;;;;;;;;;5314376;26;20015;-76
2024/04/14 03:42:07;;;;;;;3.40;3.10;;;;;;;;;;5301122;26;20004;-76
2024/04/14 03:44:34;;;;;;;3.63;2.95;;;;;;;;;;5316777;26;20013;-76
2024/04/14 03:47:01;;;;;;;4.10;3.40;;;;;;;;;;5287314;26;20017;-77
2024/04/14 03:49:29;;;;;;;4.75;3.40;;;;;;;;;;5287671;26;20017;-77
2024/04/14 03:51:56;;;;;;;4.20;3.15;;;;;;;;;;5315344;26;20336;-77
2024/04/14 03:54:23;;;;;;;4.03;3.17;;;;;;;;;;5286719;26;20413;-76
2024/04/14 03:56:50;;;;;;;4.00;3.05;;;;;;;;;;5319895;26;20052;-75
2024/04/14 03:59:17;;;;;;;4.72;3.00;;;;;;;;;;5347811;26;20023;-77
2024/04/14 04:01:43;;;;;;;3.22;2.80;;;;;;;;;;5357616;26;20008;-77
2024/04/14 04:04:10;;;;;;;3.05;2.38;;;;;;;;;;5349532;26;20056;-77
2024/04/14 04:06:37;;;;;;;3.13;2.70;;;;;;;;;;5315068;26;20020;-77
2024/04/14 04:09:06;;;;;;;4.45;2.72;;;;;;;;;;5345300;26;20414;-77
2024/04/14 04:11:33;;;;;;;3.08;2.75;;;;;;;;;;5319842;26;20023;-77
2024/04/14 04:14:00;;;;;;;2.70;2.50;;;;;;;;;;5349944;26;20020;-76
2024/04/14 04:16:26;;;;;;;3.90;2.53;;;;;;;;;;5314676;26;20008;-77
2024/04/14 04:18:53;;;;;;;4.55;2.80;;;;;;;;;;5314279;26;20009;-76
2024/04/14 04:21:25;;;;;;;2.60;2.40;;;;;;;;;;5310784;26;20351;-75
2024/04/14 04:23:52;;;;;;;3.55;2.47;;;;;;;;;;5314390;26;20001;-76
2024/04/14 04:26:20;;;;;;;3.25;2.78;;;;;;;;;;5359576;26;20078;-76
2024/04/14 04:28:47;;;;;;;3.15;2.70;;;;;;;;;;5344888;26;20032;-76
2024/04/14 04:31:14;;;;;;;3.90;2.42;;;;;;;;;;5353959;26;20350;-76
2024/04/14 04:33:41;;;;;;;2.97;2.47;;;;;;;;;;5322174;26;19997;-75
2024/04/14 04:36:11;;;;;;;4.00;2.60;;;;;;;;;;5314845;26;20001;-76
2024/04/14 04:38:39;;;;;;;3.58;2.67;;;;;;;;;;5317464;26;20339;-77
2024/04/14 04:41:07;;;;;;;3.13;2.33;;;;;;;;;;5341946;26;20081;-76
2024/04/14 04:43:35;;;;;;;10.85;3.20;;;;;;;;;;5319948;26;20040;-76
2024/04/14 04:46:02;;;;;;;2.47;2.28;;;;;;;;;;5285928;26;20017;-76
2024/04/14 04:48:29;;;;;;;4.60;2.58;;;;;;;;;;5319674;26;20010;-75
2024/04/14 04:50:56;;;;;;;4.97;3.10;;;;;;;;;;5317055;26;20005;-76
2024/04/14 04:53:23;;;;;;;5.70;2.50;;;;;;;;;;5312871;26;20012;-76
2024/04/14 04:55:50;;;;;;;3.72;2.33;;;;;;;;;;5313792;26;20021;-76
2024/04/14 04:58:16;;;;;;;3.38;2.70;;;;;;;;;;5319618;26;20024;-77
2024/04/14 05:00:53;;;;;;;3.15;2.70;;;;;;;;;;5314144;26;20020;-75
2024/04/14 05:03:20;;;;;;;2.85;2.60;;;;;;;;;;5352381;26;20015;-76
2024/04/14 05:05:57;;;;;;;6.32;3.30;;;;;;;;;;5285581;26;20085;-76
2024/04/14 05:08:24;;;;;;;4.10;2.67;;;;;;;;;;5319412;26;20005;-75
2024/04/14 05:10:51;;;;;;;3.15;2.55;;;;;;;;;;5334497;26;20103;-76
2024/04/14 05:13:18;;;;;;;4.35;2.72;;;;;;;;;;5320291;26;20012;-75
2024/04/14 05:15:45;;;;;;;4.03;2.80;;;;;;;;;;5322514;26;20477;-76
2024/04/14 05:18:12;;;;;;;5.43;3.05;;;;;;;;;;5323079;26;20020;-76
2024/04/14 05:20:39;;;;;;;4.20;2.90;;;;;;;;;;5307218;26;20382;-77
2024/04/14 05:23:07;;;;;;;4.65;2.28;;;;;;;;;;5286570;26;20436;-76
2024/04/14 05:25:34;;;;;;;5.35;2.35;;;;;;;;;;5307430;26;20020;-79
2024/04/14 05:28:01;;;;;;;3.80;2.55;;;;;;;;;;5315440;26;20087;-76
2024/04/14 05:30:28;;;;;;;4.45;2.53;;;;;;;;;;5313159;26;20005;-76
2024/04/14 05:32:57;;;;;;;3.53;3.08;;;;;;;;;;5314468;26;20001;-75
2024/04/14 05:35:23;;;;;;;5.30;2.92;;;;;;;;;;5279714;27;20353;-76
2024/04/14 05:37:50;;;;;;;4.72;3.17;;;;;;;;;;5306522;26;20011;-76
2024/04/14 05:40:18;;;;;;;3.10;2.75;;;;;;;;;;5314870;26;20422;-76
2024/04/14 05:42:45;;;;;;;5.63;2.75;;;;;;;;;;5325467;26;20012;-76
2024/04/14 05:45:21;;;;;;;4.00;3.03;;;;;;;;;;5284547;26;20083;-74
2024/04/14 05:47:48;;;;;;;4.13;3.47;;;;;;;;;;5328567;26;20611;-77
2024/04/14 05:50:15;;;;;;;4.90;3.15;;;;;;;;;;5357222;26;20031;-74
2024/04/14 05:52:42;;;;;;;4.95;3.03;;;;;;;;;;5314109;26;20011;-74
2024/04/14 05:55:08;;;;;;;7.72;3.08;;;;;;;;;;5334605;26;20006;-74
2024/04/14 05:57:35;;;;;;;5.13;3.13;;;;;;;;;;5314308;26;20463;-74
2024/04/14 06:00:02;;;;;;;3.40;3.10;;;;;;;;;;5314923;26;20037;-75
2024/04/14 06:02:29;;;;;;;3.75;3.15;;;;;;;;;;5315223;26;20375;-76
2024/04/14 06:04:56;;;;;;;3.83;3.00;;;;;;;;;;5322102;26;20043;-76
2024/04/14 06:07:23;;;;;;;4.90;3.33;;;;;;;;;;5319593;26;20015;-75
2024/04/14 06:09:50;;;;;;;4.65;2.95;;;;;;;;;;5322519;26;20050;-76
2024/04/14 06:12:17;;;;;;;5.68;3.20;;;;;;;;;;5313798;26;20016;-76
2024/04/14 06:14:44;;;;;;;8.00;3.10;;;;;;;;;;5311487;26;20019;-76
2024/04/14 06:17:11;;;;;;;4.70;3.40;;;;;;;;;;5310912;26;20050;-76
2024/04/14 06:19:37;;;;;;;4.55;3.30;;;;;;;;;;5313998;26;20079;-75
2024/04/14 06:22:04;;;;;;;4.05;3.28;;;;;;;;;;5315028;26;20040;-75
2024/04/14 06:24:31;;;;;;;3.72;3.08;;;;;;;;;;5298494;26;20009;-75
2024/04/14 06:26:58;;;;;;;3.88;3.25;;;;;;;;;;5307603;26;20017;-75
2024/04/14 06:29:24;;;;;;;4.72;3.33;;;;;;;;;;5314477;26;20019;-76
2024/04/14 06:31:52;;;;;;;5.13;3.95;;;;;;;;;;5314453;26;20004;-75
2024/04/14 06:34:19;;;;;;;4.43;3.40;;;;;;;;;;5313914;26;20466;-76
2024/04/14 06:36:46;;;;;;;3.40;3.10;;;;;;;;;;5313630;26;20053;-75
2024/04/14 06:39:13;;;;;;;4.20;3.65;;;;;;;;;;5313675;26;20013;-75
2024/04/14 06:41:40;;;;;;;3.97;3.42;;;;;;;;;;5312203;26;20005;-77
2024/04/14 06:44:06;;;;;;;5.78;3.85;;;;;;;;;;5328779;26;20077;-75
2024/04/14 06:46:33;;;;;;;4.95;3.35;;;;;;;;;;5327817;26;20016;-75
2024/04/14 06:49:01;;;;;;;5.25;3.50;;;;;;;;;;5313450;26;20017;-73
2024/04/14 06:51:28;;;;;;;4.50;3.67;;;;;;;;;;5312562;26;20031;-76
2024/04/14 06:53:56;;;;;;;6.28;3.50;;;;;;;;;;5312072;26;20452;-73
2024/04/14 06:56:23;;;;;;;3.42;3.13;;;;;;;;;;5308366;26;20021;-80
2024/04/14 06:58:49;;;;;;;4.22;3.40;;;;;;;;;;5313567;26;20016;-79
2024/04/14 07:01:16;;;;;;;6.18;3.22;;;;;;;;;;5317293;26;20093;-76
2024/04/14 07:03:43;;;;;;;3.95;2.97;;;;;;;;;;5323641;26;20328;-76
2024/04/14 07:06:10;;;;;;;3.97;3.08;;;;;;;;;;5313158;26;20020;-75
2024/04/14 07:08:39;;;;;;;3.45;3.15;;;;;;;;;;5313248;26;20041;-76
2024/04/14 07:11:05;;;;;;;4.28;2.60;;;;;;;;;;5314573;26;20078;-75
2024/04/14 07:13:32;;;;;;;3.10;2.85;;;;;;;;;;5326189;26;20033;-74
2024/04/14 07:15:59;;;;;;;3.40;2.83;;;;;;;;;;5323752;26;20021;-75
2024/04/14 07:18:26;;;;;;;3.15;2.85;;;;;;;;;;5319291;26;20472;-79
2024/04/14 07:20:53;;;;;;;4.10;3.10;;;;;;;;;;5285041;26;20009;-76
2024/04/14 07:23:19;;;;;;;4.65;2.75;;;;;;;;;;5313228;26;20495;-77
2024/04/14 07:25:46;;;;;;;5.03;2.95;;;;;;;;;;5313623;26;20017;-75
2024/04/14 07:28:13;;;;;;;3.47;2.40;;;;;;;;;;5311844;26;20005;-78
2024/04/14 07:30:40;;;;;;;2.75;2.20;;;;;;;;;;5307016;26;20013;-79
2024/04/14 07:33:07;;;;;;;4.60;2.53;;;;;;;;;;5322573;26;20009;-77
2024/04/14 07:35:34;;;;;;;7.53;2.45;;;;;;;;;;5312763;26;20008;-80
2024/04/14 07:38:00;;;;;;;3.30;2.03;;;;;;;;;;5311652;26;20013;-78
2024/04/14 07:40:27;;;;;;;3.72;2.47;;;;;;;;;;5322882;26;20013;-78
2024/04/14 07:42:54;;;;;;;2.63;2.22;;;;;;;;;;5312650;26;20037;-78
2024/04/14 07:45:21;;;;;;;2.25;2.05;;;;;;;;;;5325229;26;20044;-82
2024/04/14 07:47:48;;;;;;;2.80;2.35;;;;;;;;;;5295168;26;20013;-79
2024/04/14 07:50:15;;;;;;;2.30;2.10;;;;;;;;;;5333106;26;20015;-76
2024/04/14 07:52:41;;;;;;;3.70;2.30;;;;;;;;;;5306398;26;20005;-78
2024/04/14 07:55:09;;;;;;;4.57;2.50;;;;;;;;;;5292439;26;20091;-79
2024/04/14 07:57:36;;;;;;;4.88;2.58;;;;;;;;;;5325412;26;20006;-79
2024/04/14 08:00:04;;;;;;;3.92;2.30;;;;;;;;;;5295336;26;20009;-79
2024/04/14 08:02:31;;;;;;;3.53;1.90;;;;;;;;;;5322354;26;20024;-79
2024/04/14 08:04:58;;;;;;;2.53;1.77;;;;;;;;;;5307054;26;20014;-78
2024/04/14 08:07:25;;;;;;;2.22;2.03;;;;;;;;;;5323587;26;20009;-78
2024/04/14 08:09:52;;;;;;;4.38;2.22;;;;;;;;;;5331616;26;20014;-79
2024/04/14 08:12:19;;;;;;;3.17;1.60;;;;;;;;;;5337958;26;20419;-77
2024/04/14 08:14:45;;;;;;;2.70;1.77;;;;;;;;;;5307760;26;20037;-81
2024/04/14 08:17:12;;;;;;;3.47;1.75;;;;;;;;;;5334525;26;20561;-80
2024/04/14 08:19:39;;;;;;;2.35;1.65;;;;;;;;;;5310873;26;20012;-78
2024/04/14 08:22:06;;;;;;;5.57;2.00;;;;;;;;;;5302838;26;20059;-80
2024/04/14 08:24:40;;;;;;;1.75;1.42;;;;;;;;;;5309557;26;20001;-83
2024/04/14 08:27:07;;;;;;;2.03;1.80;;;;;;;;;;5303729;26;20785;-78
2024/04/14 08:29:37;;;;;;;3.08;1.63;;;;;;;;;;5327265;26;20017;-78
2024/04/14 08:32:04;;;;;;;4.22;1.70;;;;;;;;;;5305004;26;20087;-78
2024/04/14 08:34:31;;;;;;;2.55;1.83;;;;;;;;;;5333324;26;20005;-79
2024/04/14 08:36:58;;;;;;;3.28;1.80;;;;;;;;;;5311855;26;20005;-77
2024/04/14 08:39:25;;;;;;;1.65;1.35;;;;;;;;;;5331517;26;20009;-77
2024/04/14 08:41:52;;;;;;;2.28;1.88;;;;;;;;;;5351388;26;20044;-78
2024/04/14 08:44:19;;;;;;;1.80;1.52;;;;;;;;;;5338110;26;20017;-79
2024/04/14 08:46:46;;;;;;;2.75;1.95;;;;;;;;;;5342087;26;20009;-79
2024/04/14 08:49:13;;;;;;;3.03;2.03;;;;;;;;;;5310392;26;20005;-79
2024/04/14 08:51:40;;;;;;;4.28;1.60;;;;;;;;;;5306906;26;20001;-79
2024/04/14 08:54:07;;;;;;;2.75;1.77;;;;;;;;;;5336360;26;20009;-81
2024/04/14 08:56:35;;;;;;;3.25;2.00;;;;;;;;;;5320684;26;20045;-79
2024/04/14 08:59:05;;;;;;;3.17;1.73;;;;;;;;;;5304181;26;19998;-79
2024/04/14 09:01:35;;;;;;;5.20;2.25;;;;;;;;;;5298579;26;20020;-79
2024/04/14 09:04:03;;;;;;;2.75;1.92;;;;;;;;;;5332636;26;20028;-79
2024/04/14 09:06:31;;;;;;;2.08;1.73;;;;;;;;;;5308819;26;20017;-78
2024/04/14 09:08:59;;;;;;;2.80;1.85;;;;;;;;;;5337130;26;20071;-77
2024/04/14 09:11:26;;;;;;;2.20;1.40;;;;;;;;;;5311657;26;20050;-78
2024/04/14 09:13:53;;;;;;;3.70;1.52;;;;;;;;;;5303835;26;20019;-78
2024/04/14 09:16:20;;;;;;;4.35;1.70;;;;;;;;;;5315777;26;20017;-78
2024/04/14 09:18:47;;;;;;;2.78;1.58;;;;;;;;;;5309714;26;20433;-78
2024/04/14 09:21:14;;;;;;;2.35;1.60;;;;;;;;;;5310807;26;20501;-79
2024/04/14 09:23:43;;;;;;;2.08;1.70;;;;;;;;;;5306210;26;20010;-79
2024/04/14 09:26:10;;;;;;;3.63;2.03;;;;;;;;;;5299829;26;20049;-80
2024/04/14 09:28:37;;;;;;;4.53;1.95;;;;;;;;;;5333869;26;20009;-80
2024/04/14 09:31:05;;;;;;;2.20;1.80;;;;;;;;;;5312354;26;20009;-80
2024/04/14 09:33:32;;;;;;;1.77;1.50;;;;;;;;;;5333147;26;20009;-79
2024/04/14 09:36:00;;;;;;;5.30;2.03;;;;;;;;;;5295818;26;20468;-80
2024/04/14 09:38:27;;;;;;;1.98;1.73;;;;;;;;;;5334398;26;20348;-79
2024/04/14 09:40:54;;;;;;;4.30;2.35;;;;;;;;;;5307350;26;20140;-81
2024/04/14 09:43:21;;;;;;;7.88;3.55;;;;;;;;;;5309596;26;20009;-83
2024/04/14 09:45:48;;;;;;;10.65;6.00;;;;;;;;;;5308000;26;20091;-80
2024/04/14 09:48:15;;;;;;;12.05;7.93;;;;;;;;;;5340378;26;20040;-81
2024/04/14 09:50:44;;;;;;;3.95;2.40;;;;;;;;;;5315299;26;20020;-84
2024/04/14 09:53:11;;;;;;;2.53;1.92;;;;;;;;;;5303492;26;20017;-79
2024/04/14 09:55:38;;;;;;;3.85;2.10;;;;;;;;;;5341277;26;20005;-80
2024/04/14 09:58:06;;;;;;;3.67;1.90;;;;;;;;;;5325273;26;20009;-84
2024/04/14 10:00:33;;;;;;;5.15;1.80;;;;;;;;;;5316535;26;20515;-78
2024/04/14 10:03:01;;;;;;;2.30;1.60;;;;;;;;;;5331928;26;20013;-76
2024/04/14 10:05:28;;;;;;;1.95;1.65;;;;;;;;;;5309672;26;20005;-77
2024/04/14 10:07:55;;;;;;;2.45;2.03;;;;;;;;;;5301384;26;20462;-75
2024/04/14 10:10:23;;;;;;;4.22;1.70;;;;;;;;;;5325557;26;20027;-75
2024/04/14 10:12:52;;;;;;;2.78;1.80;;;;;;;;;;5332916;26;20024;-74
2024/04/14 10:15:23;;;;;;;4.68;1.73;;;;;;;;;;5332049;26;20015;-75
2024/04/14 10:18:05;;;;;;;1.83;1.50;;;;;;;;;;5327331;26;20010;-74
2024/04/14 10:20:39;;;;;;;1.70;1.50;;;;;;;;;;5281848;26;20021;-74
2024/04/14 10:23:07;;;;;;;4.20;1.52;;;;;;;;;;5329880;26;20005;-76
2024/04/14 10:25:33;;;;;;;3.15;1.90;;;;;;;;;;5306014;26;20017;-76
2024/04/14 10:28:04;;;;;;;4.18;1.70;;;;;;;;;;5290941;26;20447;-75
2024/04/14 10:30:31;;;;;;;5.25;2.10;;;;;;;;;;5307155;26;20001;-75
2024/04/14 10:33:01;;;;;;;5.90;1.77;;;;;;;;;;5320040;26;20013;-77
2024/04/14 10:35:28;;;;;;;2.17;1.67;;;;;;;;;;5311869;26;20008;-79
2024/04/14 10:37:55;;;;;;;2.15;1.60;;;;;;;;;;5304847;26;20055;-78
2024/04/14 10:40:22;;;;;;;4.75;1.60;;;;;;;;;;5312410;26;20001;-77
2024/04/14 10:42:49;;;;;;;2.75;1.88;;;;;;;;;;5278408;26;20016;-77
2024/04/14 10:45:27;;;;;;;4.10;2.10;;;;;;;;;;5305466;26;20021;-77
2024/04/14 10:47:57;;;;;;;8.65;2.60;;;;;;;;;;5307289;26;20017;-77
2024/04/14 10:50:27;;;;;;;2.85;1.52;;;;;;;;;;5327334;26;20029;-77
2024/04/14 10:52:53;;;;;;;5.28;2.30;;;;;;;;;;5322570;26;20091;-77
2024/04/14 10:55:20;;;;;;;1.67;1.58;;;;;;;;;;5324764;26;20025;-77
2024/04/14 10:57:47;;;;;;;3.22;1.98;;;;;;;;;;5320944;26;20005;-77
2024/04/14 11:00:14;;;;;;;2.28;1.77;;;;;;;;;;5330540;26;20021;-77
2024/04/14 11:02:42;;;;;;;4.45;2.08;;;;;;;;;;5324279;26;20092;-78
2024/04/14 11:05:14;;;;;;;;;;;;;;;;;;5331013;26;20041;-77
2024/04/14 11:07:41;;;;;;;2.17;1.45;;;;;;;;;;5297648;26;19996;-77
2024/04/14 11:10:08;;;;;;;5.13;2.00;;;;;;;;;;5306982;26;20464;-77
2024/04/14 11:12:35;;;;;;;5.13;1.65;;;;;;;;;;5304980;26;20016;-77
2024/04/14 11:15:03;;;;;;;1.63;1.52;;;;;;;;;;5321963;26;20016;-77
2024/04/14 11:17:33;;;;;;;2.88;1.38;;;;;;;;;;5311146;26;20055;-78
2024/04/14 11:20:02;;;;;;;4.03;1.70;;;;;;;;;;5297590;26;20005;-77
2024/04/14 11:22:30;;;;;;;2.05;1.40;;;;;;;;;;5311409;26;20017;-77
2024/04/14 11:24:57;;;;;;;3.35;1.60;;;;;;;;;;5321049;26;20476;-77
2024/04/14 11:27:25;;;;;;;2.92;1.50;;;;;;;;;;5310247;26;20016;-77
2024/04/14 11:29:53;;;;;;;2.05;1.40;;;;;;;;;;5328537;26;20027;-77
2024/04/14 11:35:19;;;;;;;1.40;1.30;;;;;;;;;;5325399;26;20017;-77
2024/04/14 11:37:49;;;;;;;2.20;1.20;;;;;;;;;;5302089;26;20018;-77
2024/04/14 11:40:17;;;;;;;1.40;1.30;;;;;;;;;;5313364;26;20009;-77
2024/04/14 11:42:44;;;;;;;5.78;1.70;;;;;;;;;;5309043;26;20009;-78
2024/04/14 11:45:11;;;;;;;2.53;1.40;;;;;;;;;;5345127;26;20020;-77
2024/04/14 11:47:38;;;;;;;2.50;1.35;;;;;;;;;;5307792;26;20123;-78
2024/04/14 11:50:05;;;;;;;2.42;1.70;;;;;;;;;;5333190;26;20010;-77
2024/04/14 11:52:32;;;;;;;1.50;1.40;;;;;;;;;;5310960;26;20017;-81
2024/04/14 11:55:02;;;;;;;5.25;1.48;;;;;;;;;;5290686;26;20365;-77
2024/04/14 11:57:29;;;;;;;4.97;1.60;;;;;;;;;;5318618;26;20021;-76
2024/04/14 11:59:56;;;;;;;1.60;1.20;;;;;;;;;;5332708;26;20083;-82
2024/04/14 12:02:23;;;;;;;2.63;1.80;;;;;;;;;;5316328;26;20009;-81
2024/04/14 12:04:51;;;;;;;1.88;1.58;;;;;;;;;;5308694;26;20019;-78
2024/04/14 12:07:18;;;;;;;2.35;1.73;;;;;;;;;;5345586;26;20009;-78
2024/04/14 12:09:45;;;;;;;1.88;1.63;;;;;;;;;;5314556;26;20082;-80
2024/04/14 12:12:13;;;;;;;2.05;1.55;;;;;;;;;;5320126;26;20005;-80
2024/04/14 12:14:40;;;;;;;5.22;2.28;;;;;;;;;;5339916;26;20009;-80
2024/04/14 12:17:07;;;;;;;2.78;1.60;;;;;;;;;;5319864;26;20016;-80
2024/04/14 12:19:34;;;;;;;2.90;1.70;;;;;;;;;;5323529;26;20015;-80
2024/04/14 12:22:01;;;;;;;4.32;1.77;;;;;;;;;;5316726;26;20040;-79
2024/04/14 12:24:28;;;;;;;2.53;1.70;;;;;;;;;;5322570;26;20005;-80
2024/04/14 12:26:55;;;;;;;2.40;1.55;;;;;;;;;;5312601;26;20005;-80
2024/04/14 12:29:22;;;;;;;1.85;1.67;;;;;;;;;;5308943;26;20136;-77
2024/04/14 12:31:49;;;;;;;2.45;1.30;;;;;;;;;;5332553;26;20073;-79
2024/04/14 12:34:16;;;;;;;4.53;1.60;;;;;;;;;;5320899;26;20005;-79
2024/04/14 12:36:43;;;;;;;1.73;1.30;;;;;;;;;;5323159;26;20004;-78
2024/04/14 12:39:10;;;;;;;1.83;1.42;;;;;;;;;;5329475;26;20100;-78
2024/04/14 12:41:48;;;;;;;2.50;1.25;;;;;;;;;;5314997;26;20029;-78
2024/04/14 12:44:15;;;;;;;6.40;2.25;;;;;;;;;;5343895;26;20011;-79
2024/04/14 12:46:42;;;;;;;5.60;1.95;;;;;;;;;;5320462;26;20029;-80
2024/04/14 12:49:09;;;;;;;2.35;1.45;;;;;;;;;;5316769;26;20001;-79
2024/04/14 12:51:36;;;;;;;4.30;1.90;;;;;;;;;;5317723;26;20006;-79
2024/04/14 12:54:03;;;;;;;3.53;1.70;;;;;;;;;;5337170;26;20025;-79
2024/04/14 12:56:32;;;;;;;3.90;1.63;;;;;;;;;;5334892;26;20570;-78
2024/04/14 12:58:59;;;;;;;1.52;1.42;;;;;;;;;;5345490;26;20072;-79
2024/04/14 13:01:26;;;;;;;4.93;1.90;;;;;;;;;;5341416;26;20005;-78
2024/04/14 13:03:53;;;;;;;2.33;1.23;;;;;;;;;;5348400;26;20008;-79
2024/04/14 13:06:21;;;;;;;2.10;1.42;;;;;;;;;;5323123;26;20499;-79
2024/04/14 13:08:48;;;;;;;1.40;1.30;;;;;;;;;;5316086;26;20362;-79
2024/04/14 13:11:15;;;;;;;1.55;1.20;;;;;;;;;;5349377;26;20005;-79
2024/04/14 13:13:42;;;;;;;1.83;1.13;;;;;;;;;;5318662;26;20006;-78
2024/04/14 13:16:09;;;;;;;1.55;1.40;;;;;;;;;;5310241;26;20010;-79
2024/04/14 13:18:36;;;;;;;3.63;1.42;;;;;;;;;;5311403;26;20413;-80
2024/04/14 13:21:03;;;;;;;3.42;1.40;;;;;;;;;;5311804;26;20012;-79
2024/04/14 13:23:30;;;;;;;2.90;1.50;;;;;;;;;;5324654;26;20037;-80
2024/04/14 13:25:57;;;;;;;2.55;1.50;;;;;;;;;;5309571;26;20001;-80
2024/04/14 13:28:24;;;;;;;2.75;1.75;;;;;;;;;;5311295;26;20024;-80
2024/04/14 13:30:50;;;;;;;1.40;1.08;;;;;;;;;;5347173;26;20046;-80
2024/04/14 13:33:17;;;;;;;1.77;1.33;;;;;;;;;;5341034;26;20070;-81
2024/04/14 13:35:44;;;;;;;6.03;1.88;;;;;;;;;;5336471;26;20005;-81
2024/04/14 13:38:11;;;;;;;4.38;1.50;;;;;;;;;;5329547;26;20016;-78
2024/04/14 13:40:41;;;;;;;2.00;1.33;;;;;;;;;;5301303;26;20083;-77
2024/04/14 13:43:08;;;;;;;3.33;1.65;;;;;;;;;;5324355;26;20366;-75
2024/04/14 13:45:35;;;;;;;2.45;1.25;;;;;;;;;;5303966;26;20831;-76
2024/04/14 13:48:02;;;;;;;3.78;1.63;;;;;;;;;;5344095;26;20009;-80
2024/04/14 13:50:30;;;;;;;4.63;2.42;;;;;;;;;;5317357;26;20024;-80
2024/04/14 13:52:57;;;;;;;3.90;2.83;;;;;;;;;;5316019;26;20009;-81
2024/04/14 13:55:24;;;;;;;5.45;2.78;;;;;;;;;;5286052;26;20075;-81
2024/04/14 13:57:51;;;;;;;3.13;2.00;;;;;;;;;;5317066;26;20032;-81
2024/04/14 14:00:21;;;;;;;3.05;2.05;;;;;;;;;;5317873;26;20011;-81
2024/04/14 14:02:48;;;;;;;4.07;1.70;;;;;;;;;;5318014;26;20001;-80
2024/04/14 14:05:15;;;;;;;2.47;1.50;;;;;;;;;;5313282;26;20008;-81
2024/04/14 14:07:41;;;;;;;2.17;1.45;;;;;;;;;;5326666;26;20052;-80
2024/04/14 14:10:08;;;;;;;2.53;1.58;;;;;;;;;;5326656;26;20055;-80
2024/04/14 14:12:35;;;;;;;2.42;1.42;;;;;;;;;;5322878;26;20008;-81
2024/04/14 14:15:02;;;;;;;4.85;1.40;;;;;;;;;;5350197;26;20005;-79
2024/04/14 14:17:29;;;;;;;2.65;1.63;;;;;;;;;;5324447;26;20014;-81
2024/04/14 14:19:56;;;;;;;1.70;1.60;;;;;;;;;;5323726;26;20055;-82
2024/04/14 14:22:23;;;;;;;4.18;1.70;;;;;;;;;;5293709;26;20008;-80
2024/04/14 14:24:50;;;;;;;2.10;1.65;;;;;;;;;;5275439;26;20019;-79
2024/04/14 14:27:17;;;;;;;2.28;1.33;;;;;;;;;;5304295;26;20009;-79
2024/04/14 14:29:44;;;;;;;1.35;1.23;;;;;;;;;;5311442;26;20032;-81
2024/04/14 14:32:12;;;;;;;2.60;1.40;;;;;;;;;;5299498;26;20111;-76
2024/04/14 14:37:24;;;;;;;2.15;1.60;;;;;;;;;;5327439;26;20005;-79
2024/04/14 14:39:51;;;;;;;1.88;1.40;;;;;;;;;;5296493;26;20013;-79
2024/04/14 14:42:19;;;;;;;1.63;1.30;;;;;;;;;;5320524;26;20048;-78
2024/04/14 14:44:46;;;;;;;2.97;1.40;;;;;;;;;;5311626;26;20040;-79
2024/04/14 14:47:13;;;;;;;2.38;1.75;;;;;;;;;;5305940;26;20021;-80
2024/04/14 14:49:40;;;;;;;4.95;1.60;;;;;;;;;;5309099;26;20016;-80